createdAt,value
2018-11-27T00:00:12.203Z,15.47
2018-11-27T00:02:41.225Z,15.37
2018-11-27T00:05:10.131Z,15.80
2018-11-27T00:07:38.596Z,14.63
2018-11-27T00:10:10.434Z,15.67
2018-11-27T00:12:38.822Z,14.70
2018-11-27T00:15:10.085Z,14.53
2018-11-27T00:17:38.534Z,14.33
2018-11-27T00:20:09.077Z,14.13
2018-11-27T00:22:37.539Z,14.03
2018-11-27T00:25:14.398Z,13.60
2018-11-27T00:27:42.812Z,13.67
2018-11-27T00:30:12.376Z,13.70
2018-11-27T00:32:40.781Z,14.50
2018-11-27T00:35:11.123Z,14.70
2018-11-27T00:37:39.569Z,14.40
2018-11-27T00:40:13.213Z,14.10
2018-11-27T00:42:41.605Z,13.53
2018-11-27T00:45:11.401Z,13.97
2018-11-27T00:47:39.889Z,14.00
2018-11-27T00:50:10.653Z,13.83
2018-11-27T00:52:39.237Z,13.90
2018-11-27T00:55:09.182Z,13.70
2018-11-27T00:57:37.873Z,14.67
2018-11-27T01:00:14.052Z,12.90
2018-11-27T01:02:42.481Z,14.10
2018-11-27T01:05:12.077Z,14.13
2018-11-27T01:07:40.465Z,13.60
2018-11-27T01:10:23.609Z,14.77
2018-11-27T01:12:52.107Z,14.17
2018-11-27T01:15:20.473Z,13.90
2018-11-27T01:17:53.089Z,15.03
2018-11-27T01:20:22.303Z,13.97
2018-11-27T01:22:50.757Z,14.27
2018-11-27T01:25:19.282Z,14.20
2018-11-27T01:27:47.683Z,13.43
2018-11-27T01:30:18.449Z,13.27
2018-11-27T01:32:47.214Z,13.97
2018-11-27T01:35:16.496Z,13.97
2018-11-27T01:37:45.121Z,14.33
2018-11-27T01:40:21.953Z,14.57
2018-11-27T01:42:52.466Z,13.67
2018-11-27T01:45:21.484Z,14.17
2018-11-27T01:47:50.148Z,13.07
2018-11-27T01:50:19.236Z,13.27
2018-11-27T01:52:47.710Z,13.83
2018-11-27T01:55:17.952Z,13.50
2018-11-27T01:57:46.559Z,13.47
2018-11-27T02:00:21.707Z,17.53
2018-11-27T02:02:50.425Z,13.67
2018-11-27T02:05:18.895Z,13.93
2018-11-27T02:07:47.310Z,13.13
2018-11-27T02:10:15.771Z,14.07
2018-11-27T02:12:45.412Z,14.03
2018-11-27T02:15:16.371Z,14.33
2018-11-27T02:17:44.827Z,12.93
2018-11-27T02:20:13.841Z,13.90
2018-11-27T02:22:42.296Z,14.00
2018-11-27T02:25:20.715Z,13.13
2018-11-27T02:27:49.132Z,14.20
2018-11-27T02:30:18.974Z,14.60
2018-11-27T02:32:47.415Z,13.87
2018-11-27T02:35:17.501Z,13.90
2018-11-27T02:37:47.268Z,12.97
2018-11-27T02:40:16.647Z,14.53
2018-11-27T02:42:45.063Z,13.17
2018-11-27T02:45:20.188Z,14.83
2018-11-27T02:47:49.502Z,14.07
2018-11-27T02:50:19.000Z,13.73
2018-11-27T02:52:47.386Z,13.83
2018-11-27T02:55:19.154Z,13.90
2018-11-27T02:57:47.566Z,12.97
2018-11-27T03:00:17.029Z,13.73
2018-11-27T03:02:45.447Z,14.57
2018-11-27T03:05:15.211Z,13.13
2018-11-27T03:07:43.670Z,12.23
2018-11-27T03:10:14.160Z,12.67
2018-11-27T03:12:42.607Z,12.67
2018-11-27T03:15:15.825Z,13.60
2018-11-27T03:17:44.270Z,14.13
2018-11-27T03:20:13.518Z,13.53
2018-11-27T03:22:42.039Z,12.80
2018-11-27T03:25:15.517Z,13.13
2018-11-27T03:27:44.723Z,14.20
2018-11-27T03:30:15.033Z,13.80
2018-11-27T03:32:43.626Z,13.50
2018-11-27T03:35:13.782Z,13.53
2018-11-27T03:37:42.338Z,13.33
2018-11-27T03:40:21.758Z,14.63
2018-11-27T03:42:50.222Z,13.83
2018-11-27T03:45:19.460Z,12.87
2018-11-27T03:47:47.876Z,13.67
2018-11-27T03:50:22.803Z,13.13
2018-11-27T03:52:51.178Z,13.90
2018-11-27T03:55:19.607Z,13.07
2018-11-27T03:57:47.998Z,13.17
2018-11-27T04:00:24.881Z,12.90
2018-11-27T04:03:23.899Z,13.33
2018-11-27T04:05:52.316Z,14.03
2018-11-27T04:08:20.685Z,13.80
2018-11-27T04:10:49.087Z,13.97
2018-11-27T04:13:17.577Z,13.13
2018-11-27T04:15:45.981Z,14.80
2018-11-27T04:18:14.388Z,14.07
2018-11-27T04:20:42.770Z,13.40
2018-11-27T04:23:11.172Z,14.97
2018-11-27T04:25:39.546Z,15.10
2018-11-27T04:28:09.079Z,20.27
2018-11-27T04:30:37.489Z,14.87
2018-11-27T04:33:05.898Z,14.40
2018-11-27T04:35:34.298Z,14.40
2018-11-27T04:38:02.726Z,14.50
2018-11-27T04:40:31.119Z,15.23
2018-11-27T04:42:59.626Z,14.37
2018-11-27T04:45:28.086Z,14.13
2018-11-27T04:47:56.458Z,14.90
2018-11-27T04:50:24.922Z,14.33
2018-11-27T04:52:53.320Z,13.93
2018-11-27T04:55:22.394Z,15.33
2018-11-27T04:57:51.745Z,16.40
2018-11-27T05:00:24.145Z,14.80
2018-11-27T05:02:52.552Z,15.20
2018-11-27T05:05:20.974Z,14.77
2018-11-27T05:07:49.590Z,15.43
2018-11-27T05:10:19.932Z,14.70
2018-11-27T05:12:48.338Z,15.13
2018-11-27T05:15:21.689Z,15.23
2018-11-27T05:17:52.376Z,14.63
2018-11-27T05:20:20.799Z,15.37
2018-11-27T05:22:49.182Z,14.00
2018-11-27T05:25:18.651Z,15.27
2018-11-27T05:27:48.988Z,14.83
2018-11-27T05:30:18.348Z,14.53
2018-11-27T05:32:46.714Z,15.40
2018-11-27T05:35:16.264Z,14.60
2018-11-27T05:37:45.831Z,15.23
2018-11-27T05:40:17.220Z,15.20
2018-11-27T05:42:46.077Z,14.90
2018-11-27T05:45:16.407Z,14.83
2018-11-27T05:47:44.855Z,16.40
2018-11-27T05:50:15.339Z,16.20
2018-11-27T05:52:43.782Z,15.30
2018-11-27T05:55:13.116Z,15.10
2018-11-27T05:57:42.099Z,14.97
2018-11-27T06:00:16.121Z,15.67
2018-11-27T06:02:44.688Z,15.43
2018-11-27T06:05:15.324Z,15.57
2018-11-27T06:07:43.768Z,15.07
2018-11-27T06:10:16.055Z,15.23
2018-11-27T06:12:44.457Z,14.90
2018-11-27T06:15:14.789Z,14.50
2018-11-27T06:17:43.341Z,16.23
2018-11-27T06:20:13.233Z,15.80
2018-11-27T06:22:41.655Z,14.70
2018-11-27T06:25:13.099Z,15.47
2018-11-27T06:27:41.607Z,14.70
2018-11-27T06:30:14.533Z,15.07
2018-11-27T06:32:42.959Z,16.10
2018-11-27T06:35:13.687Z,15.57
2018-11-27T06:37:42.073Z,15.57
2018-11-27T06:40:12.418Z,15.50
2018-11-27T06:42:40.849Z,15.53
2018-11-27T06:45:12.033Z,15.37
2018-11-27T06:47:40.497Z,16.73
2018-11-27T06:50:10.467Z,16.33
2018-11-27T06:52:38.882Z,16.00
2018-11-27T06:55:10.725Z,15.90
2018-11-27T06:57:39.131Z,15.87
2018-11-27T07:00:13.100Z,15.63
2018-11-27T07:02:41.569Z,16.00
2018-11-27T07:05:12.066Z,15.37
2018-11-27T07:07:41.768Z,16.97
2018-11-27T07:10:14.885Z,14.87
2018-11-27T07:12:43.301Z,16.53
2018-11-27T07:15:16.575Z,16.40
2018-11-27T07:17:44.957Z,16.60
2018-11-27T07:20:13.567Z,16.73
2018-11-27T07:22:41.987Z,17.40
2018-11-27T07:25:12.298Z,17.20
2018-11-27T07:27:41.717Z,15.57
2018-11-27T07:30:18.274Z,17.70
2018-11-27T07:32:46.707Z,16.63
2018-11-27T07:35:15.742Z,18.47
2018-11-27T07:37:44.210Z,16.67
2018-11-27T07:40:16.225Z,18.47
2018-11-27T07:42:44.718Z,17.97
2018-11-27T07:45:16.398Z,16.80
2018-11-27T07:47:46.063Z,17.03
2018-11-27T07:50:15.892Z,16.60
2018-11-27T07:52:44.409Z,15.87
2018-11-27T07:55:13.841Z,16.90
2018-11-27T07:57:42.334Z,16.47
2018-11-27T08:00:19.578Z,16.63
2018-11-27T08:02:49.136Z,16.17
2018-11-27T08:05:20.515Z,15.47
2018-11-27T08:07:50.919Z,16.20
2018-11-27T08:10:20.378Z,17.23
2018-11-27T08:12:48.876Z,16.40
2018-11-27T08:15:19.516Z,14.87
2018-11-27T08:17:48.015Z,16.00
2018-11-27T08:20:18.716Z,16.13
2018-11-27T08:22:47.146Z,15.53
2018-11-27T08:25:15.742Z,15.37
2018-11-27T08:27:44.350Z,16.20
2018-11-27T08:30:17.778Z,15.20
2018-11-27T08:32:46.271Z,15.37
2018-11-27T08:35:19.719Z,17.57
2018-11-27T08:37:49.032Z,16.57
2018-11-27T08:40:18.418Z,17.30
2018-11-27T08:42:46.854Z,18.47
2018-11-27T08:45:20.110Z,17.13
2018-11-27T08:47:49.330Z,17.97
2018-11-27T08:50:19.165Z,16.47
2018-11-27T08:52:52.654Z,15.90
2018-11-27T08:55:24.483Z,17.50
2018-11-27T08:57:53.137Z,16.17
2018-11-27T09:00:23.511Z,14.60
2018-11-27T09:02:51.929Z,15.13
2018-11-27T09:05:20.399Z,14.43
2018-11-27T09:07:49.866Z,14.60
2018-11-27T09:10:20.369Z,14.03
2018-11-27T09:12:48.835Z,13.90
2018-11-27T09:15:18.317Z,15.13
2018-11-27T09:17:50.400Z,14.13
2018-11-27T09:20:18.815Z,14.93
2018-11-27T09:22:47.276Z,14.90
2018-11-27T09:25:15.610Z,15.53
2018-11-27T09:27:44.098Z,15.27
2018-11-27T09:30:17.924Z,13.90
2018-11-27T09:32:46.423Z,14.07
2018-11-27T09:35:14.888Z,15.10
2018-11-27T09:37:43.303Z,14.33
2018-11-27T09:40:14.847Z,14.93
2018-11-27T09:42:43.266Z,15.07
2018-11-27T09:45:20.821Z,15.27
2018-11-27T09:47:51.250Z,14.47
2018-11-27T09:50:19.670Z,13.60
2018-11-27T09:52:48.082Z,13.47
2018-11-27T09:55:21.541Z,15.27
2018-11-27T09:57:50.368Z,13.90
2018-11-27T10:00:21.739Z,14.30
2018-11-27T10:02:50.835Z,13.40
2018-11-27T10:05:19.299Z,14.43
2018-11-27T10:07:47.725Z,14.67
2018-11-27T10:10:17.923Z,15.13
2018-11-27T10:12:46.361Z,14.57
2018-11-27T10:15:16.921Z,14.53
2018-11-27T10:17:46.570Z,13.50
2018-11-27T10:20:16.455Z,14.87
2018-11-27T10:22:44.845Z,14.47
2018-11-27T10:25:13.275Z,16.60
2018-11-27T10:27:42.134Z,14.13
2018-11-27T10:30:27.064Z,15.70
2018-11-27T10:32:56.567Z,16.30
2018-11-27T10:35:29.133Z,15.23
2018-11-27T10:37:57.533Z,15.77
2018-11-27T10:40:25.949Z,15.27
2018-11-27T10:42:54.428Z,16.00
2018-11-27T10:45:23.290Z,15.27
2018-11-27T10:47:52.914Z,14.40
2018-11-27T10:50:21.332Z,15.00
2018-11-27T10:52:53.872Z,15.53
2018-11-27T10:55:22.927Z,15.57
2018-11-27T10:57:51.304Z,14.63
2018-11-27T11:00:32.172Z,16.30
2018-11-27T11:03:35.972Z,15.00
2018-11-27T11:06:06.074Z,14.87
2018-11-27T11:08:34.459Z,14.87
2018-11-27T11:11:02.901Z,15.57
2018-11-27T11:13:31.297Z,14.77
2018-11-27T11:15:59.723Z,15.27
2018-11-27T11:18:28.166Z,16.67
2018-11-27T11:20:56.634Z,15.43
2018-11-27T11:23:25.060Z,14.23
2018-11-27T11:25:55.156Z,15.57
2018-11-27T11:28:25.446Z,15.50
2018-11-27T11:30:53.915Z,15.37
2018-11-27T11:33:22.334Z,16.73
2018-11-27T11:35:50.738Z,17.00
2018-11-27T11:38:19.148Z,17.17
2018-11-27T11:40:47.567Z,16.50
2018-11-27T11:43:15.971Z,17.47
2018-11-27T11:45:44.425Z,15.63
2018-11-27T11:48:12.827Z,16.27
2018-11-27T11:50:42.039Z,17.13
2018-11-27T11:53:15.008Z,16.43
2018-11-27T11:55:43.623Z,14.33
2018-11-27T11:58:12.066Z,16.00
2018-11-27T12:00:43.430Z,15.77
2018-11-27T12:03:11.805Z,16.40
2018-11-27T12:05:40.298Z,17.87
2018-11-27T12:08:09.349Z,15.47
2018-11-27T12:10:38.186Z,16.67
2018-11-27T12:13:09.699Z,16.07
2018-11-27T12:15:38.125Z,16.97
2018-11-27T12:18:07.583Z,15.13
2018-11-27T12:20:35.999Z,17.23
2018-11-27T12:23:05.197Z,16.47
2018-11-27T12:25:33.634Z,16.23
2018-11-27T12:28:02.269Z,16.73
2018-11-27T12:30:30.698Z,15.97
2018-11-27T12:32:59.140Z,18.33
2018-11-27T12:35:28.551Z,16.87
2018-11-27T12:37:57.001Z,17.60
2018-11-27T12:40:27.735Z,16.40
2018-11-27T12:42:56.741Z,17.43
2018-11-27T12:45:28.778Z,16.73
2018-11-27T12:47:58.284Z,16.70
2018-11-27T12:50:31.369Z,15.70
2018-11-27T12:53:00.802Z,17.13
2018-11-27T12:55:28.438Z,16.17
2018-11-27T12:57:56.922Z,17.20
2018-11-27T13:00:25.922Z,17.33
2018-11-27T13:02:54.322Z,16.97
2018-11-27T13:05:25.104Z,16.43
2018-11-27T13:07:55.320Z,16.73
2018-11-27T13:10:24.759Z,15.67
2018-11-27T13:12:53.190Z,16.10
2018-11-27T13:15:21.972Z,15.87
2018-11-27T13:17:51.636Z,15.17
2018-11-27T13:20:20.319Z,16.53
2018-11-27T13:22:49.423Z,15.03
2018-11-27T13:25:20.060Z,15.33
2018-11-27T13:27:49.209Z,16.10
2018-11-27T13:30:21.503Z,17.23
2018-11-27T13:32:51.903Z,15.73
2018-11-27T13:35:20.403Z,15.90
2018-11-27T13:37:48.812Z,16.23
2018-11-27T13:40:17.326Z,15.87
2018-11-27T13:42:45.807Z,16.73
2018-11-27T13:45:15.125Z,16.80
2018-11-27T13:47:44.320Z,17.00
2018-11-27T13:50:15.014Z,15.87
2018-11-27T13:52:43.509Z,16.10
2018-11-27T13:55:19.887Z,14.87
2018-11-27T13:57:48.322Z,16.57
2018-11-27T14:00:17.751Z,17.10
2018-11-27T14:03:00.792Z,16.70
2018-11-27T14:05:29.179Z,15.40
2018-11-27T14:07:57.651Z,16.70
2018-11-27T14:10:26.123Z,15.13
2018-11-27T14:12:54.479Z,15.77
2018-11-27T14:15:24.348Z,15.90
2018-11-27T14:17:53.463Z,15.47
2018-11-27T14:20:21.980Z,15.37
2018-11-27T14:22:50.937Z,16.30
2018-11-27T14:25:20.266Z,16.07
2018-11-27T14:27:51.816Z,15.77
2018-11-27T14:30:21.887Z,15.77
2018-11-27T14:32:50.453Z,15.57
2018-11-27T14:35:19.785Z,15.60
2018-11-27T14:37:49.442Z,15.87
2018-11-27T14:40:19.002Z,16.10
2018-11-27T14:42:47.500Z,16.33
2018-11-27T14:45:19.903Z,16.33
2018-11-27T14:47:49.580Z,16.17
2018-11-27T14:50:18.027Z,17.67
2018-11-27T14:52:46.430Z,17.10
2018-11-27T14:55:18.017Z,16.60
2018-11-27T14:57:46.493Z,16.47
2018-11-27T15:00:19.513Z,21.90
2018-11-27T15:02:48.088Z,15.67
2018-11-27T15:05:28.860Z,17.03
2018-11-27T15:07:57.287Z,17.03
2018-11-27T15:10:25.785Z,17.47
2018-11-27T15:12:54.174Z,16.07
2018-11-27T15:15:22.620Z,22.07
2018-11-27T15:17:51.236Z,16.60
2018-11-27T15:20:21.487Z,21.80
2018-11-27T15:22:49.918Z,19.07
2018-11-27T15:25:18.366Z,18.10
2018-11-27T15:27:46.960Z,19.53
2018-11-27T15:30:20.280Z,16.87
2018-11-27T15:32:49.024Z,16.90
2018-11-27T15:35:17.464Z,16.37
2018-11-27T15:37:45.922Z,16.00
2018-11-27T15:40:17.315Z,16.63
2018-11-27T15:42:45.795Z,16.40
2018-11-27T15:45:15.522Z,16.87
2018-11-27T15:47:43.891Z,16.77
2018-11-27T15:50:12.378Z,15.90
2018-11-27T15:52:40.853Z,14.03
2018-11-27T15:55:13.604Z,15.17
2018-11-27T15:57:42.012Z,16.60
2018-11-27T16:00:14.157Z,16.60
2018-11-27T16:02:43.078Z,17.30
2018-11-27T16:05:11.919Z,15.87
2018-11-27T16:07:40.639Z,16.73
2018-11-27T16:10:10.629Z,17.27
2018-11-27T16:12:39.061Z,16.50
2018-11-27T16:15:11.722Z,15.50
2018-11-27T16:17:40.179Z,16.30
2018-11-27T16:20:11.929Z,16.00
2018-11-27T16:22:41.269Z,17.27
2018-11-27T16:25:12.034Z,15.70
2018-11-27T16:27:40.552Z,16.03
2018-11-27T16:30:14.067Z,15.73
2018-11-27T16:32:42.511Z,17.37
2018-11-27T16:35:11.924Z,14.57
2018-11-27T16:37:40.688Z,17.50
2018-11-27T16:40:12.152Z,18.90
2018-11-27T16:42:40.834Z,18.87
2018-11-27T16:45:25.120Z,17.13
2018-11-27T16:47:53.525Z,18.30
2018-11-27T16:50:21.974Z,16.40
2018-11-27T16:52:50.562Z,16.30
2018-11-27T16:55:20.836Z,19.17
2018-11-27T16:57:49.324Z,16.87
2018-11-27T17:00:25.504Z,17.90
2018-11-27T17:02:55.955Z,17.40
2018-11-27T17:05:24.704Z,18.13
2018-11-27T17:07:53.126Z,18.30
2018-11-27T17:10:21.853Z,22.50
2018-11-27T17:12:52.615Z,17.33
2018-11-27T17:15:22.303Z,18.70
2018-11-27T17:17:50.795Z,17.87
2018-11-27T17:20:26.951Z,19.03
2018-11-27T17:22:56.413Z,18.87
2018-11-27T17:25:24.964Z,17.57
2018-11-27T17:27:54.052Z,19.00
2018-11-27T17:30:26.913Z,18.07
2018-11-27T17:32:56.037Z,17.87
2018-11-27T17:35:25.095Z,20.30
2018-11-27T17:37:53.583Z,21.57
2018-11-27T17:40:22.045Z,21.40
2018-11-27T17:42:50.880Z,19.27
2018-11-27T17:45:19.341Z,21.00
2018-11-27T17:47:47.793Z,18.70
2018-11-27T17:50:17.242Z,19.00
2018-11-27T17:52:45.666Z,19.40
2018-11-27T17:55:14.873Z,19.13
2018-11-27T17:57:43.318Z,18.13
2018-11-27T18:00:14.130Z,19.33
2018-11-27T18:02:43.021Z,18.40
2018-11-27T18:05:11.488Z,19.40
2018-11-27T18:07:40.104Z,19.20
2018-11-27T18:10:10.014Z,20.13
2018-11-27T18:12:38.447Z,19.57
2018-11-27T18:15:16.381Z,20.50
2018-11-27T18:17:44.856Z,19.00
2018-11-27T18:20:13.477Z,19.43
2018-11-27T18:22:41.908Z,22.50
2018-11-27T18:25:14.674Z,20.43
2018-11-27T18:27:44.184Z,20.90
2018-11-27T18:30:14.772Z,20.40
2018-11-27T18:32:43.184Z,22.07
2018-11-27T18:35:12.852Z,21.07
2018-11-27T18:37:41.407Z,21.93
2018-11-27T18:40:11.883Z,21.10
2018-11-27T18:42:40.334Z,19.10
2018-11-27T18:45:20.820Z,19.73
2018-11-27T18:47:49.237Z,19.77
2018-11-27T18:50:17.664Z,19.93
2018-11-27T18:52:46.035Z,19.07
2018-11-27T18:55:15.280Z,18.37
2018-11-27T18:57:44.637Z,21.53
2018-11-27T19:00:22.516Z,21.27
2018-11-27T19:02:51.030Z,21.70
2018-11-27T19:05:19.522Z,21.83
2018-11-27T19:07:48.030Z,20.80
2018-11-27T19:10:19.450Z,22.07
2018-11-27T19:12:48.405Z,22.17
2018-11-27T19:15:19.437Z,22.33
2018-11-27T19:17:49.258Z,25.40
2018-11-27T19:20:17.726Z,23.53
2018-11-27T19:22:46.134Z,22.97
2018-11-27T19:25:15.589Z,24.17
2018-11-27T19:27:44.337Z,22.30
2018-11-27T19:30:18.074Z,21.77
2018-11-27T19:32:46.587Z,21.67
2018-11-27T19:35:16.127Z,26.53
2018-11-27T19:37:45.229Z,22.63
2018-11-27T19:40:15.929Z,21.40
2018-11-27T19:42:44.414Z,23.23
2018-11-27T19:45:17.325Z,21.17
2018-11-27T19:47:45.824Z,21.33
2018-11-27T19:50:15.664Z,22.50
2018-11-27T19:52:45.133Z,19.73
2018-11-27T19:55:15.444Z,21.27
2018-11-27T19:57:44.225Z,20.50
2018-11-27T20:00:16.752Z,22.77
2018-11-27T20:02:45.861Z,23.43
2018-11-27T20:05:15.769Z,23.50
2018-11-27T20:07:44.443Z,20.90
2018-11-27T20:10:14.240Z,19.90
2018-11-27T20:12:42.820Z,19.87
2018-11-27T20:15:18.275Z,20.87
2018-11-27T20:17:47.541Z,20.77
2018-11-27T20:20:17.810Z,21.07
2018-11-27T20:22:46.324Z,21.70
2018-11-27T20:25:15.964Z,23.63
2018-11-27T20:27:44.720Z,22.57
2018-11-27T20:30:17.620Z,24.33
2018-11-27T20:32:48.612Z,21.20
2018-11-27T20:35:17.103Z,22.37
2018-11-27T20:37:46.030Z,27.97
2018-11-27T20:40:17.426Z,22.27
2018-11-27T20:42:45.936Z,22.37
2018-11-27T20:45:19.363Z,23.50
2018-11-27T20:47:46.369Z,21.80
2018-11-27T20:50:19.444Z,23.67
2018-11-27T20:52:48.010Z,22.43
2018-11-27T20:55:17.370Z,23.73
2018-11-27T20:57:48.678Z,22.30
2018-11-27T21:00:20.256Z,21.83
2018-11-27T21:02:48.854Z,22.80
2018-11-27T21:05:17.404Z,22.07
2018-11-27T21:07:45.974Z,22.47
2018-11-27T21:10:14.824Z,23.83
2018-11-27T21:12:44.170Z,23.50
2018-11-27T21:15:14.045Z,23.00
2018-11-27T21:17:42.588Z,24.70
2018-11-27T21:20:12.733Z,24.03
2018-11-27T21:22:41.287Z,23.97
2018-11-27T21:25:11.220Z,24.43
2018-11-27T21:27:39.753Z,23.57
2018-11-27T21:30:12.153Z,23.47
2018-11-27T21:32:40.897Z,23.20
2018-11-27T21:35:10.877Z,22.33
2018-11-27T21:37:39.524Z,23.57
2018-11-27T21:40:10.410Z,24.20
2018-11-27T21:42:39.003Z,22.87
2018-11-27T21:45:13.155Z,22.60
2018-11-27T21:47:42.439Z,24.67
2018-11-27T21:50:13.299Z,23.27
2018-11-27T21:52:41.844Z,23.60
2018-11-27T21:55:11.549Z,22.63
2018-11-27T21:57:41.405Z,26.07
2018-11-27T22:00:13.066Z,25.60
2018-11-27T22:02:41.547Z,25.27
2018-11-27T22:05:10.473Z,24.43
2018-11-27T22:07:38.935Z,25.20
2018-11-27T22:10:10.655Z,25.27
2018-11-27T22:12:39.134Z,23.53
2018-11-27T22:15:10.402Z,24.07
2018-11-27T22:17:39.146Z,25.50
2018-11-27T22:20:09.810Z,24.03
2018-11-27T22:22:39.446Z,24.20
2018-11-27T22:25:12.289Z,26.03
2018-11-27T22:27:40.929Z,24.70
2018-11-27T22:30:12.408Z,24.77
2018-11-27T22:32:41.683Z,23.57
2018-11-27T22:35:10.277Z,23.27
2018-11-27T22:37:38.716Z,23.07
2018-11-27T22:40:13.107Z,23.40
2018-11-27T22:42:41.686Z,24.67
2018-11-27T22:45:12.337Z,24.17
2018-11-27T22:47:40.815Z,22.73
2018-11-27T22:50:12.498Z,24.10
2018-11-27T22:52:40.964Z,23.53
2018-11-27T22:55:09.958Z,23.53
2018-11-27T22:57:38.455Z,23.17
2018-11-27T23:00:20.628Z,23.60
2018-11-27T23:02:49.125Z,23.40
2018-11-27T23:05:18.388Z,24.43
2018-11-27T23:07:46.876Z,21.17
2018-11-27T23:10:15.593Z,22.20
2018-11-27T23:12:44.294Z,24.27
2018-11-27T23:15:14.860Z,22.97
2018-11-27T23:17:43.332Z,24.50
2018-11-27T23:20:14.103Z,24.57
2018-11-27T23:22:42.641Z,22.47
2018-11-27T23:25:12.075Z,22.53
2018-11-27T23:27:40.614Z,21.80
2018-11-27T23:30:14.767Z,22.80
2018-11-27T23:32:43.280Z,23.30
2018-11-27T23:35:11.769Z,24.40
2018-11-27T23:37:40.231Z,22.50
2018-11-27T23:40:09.890Z,24.63
2018-11-27T23:42:38.740Z,23.37
2018-11-27T23:45:12.609Z,22.70
2018-11-27T23:47:41.041Z,24.37
2018-11-27T23:50:10.738Z,22.17
2018-11-27T23:52:39.201Z,24.00
2018-11-27T23:55:08.832Z,23.87
2018-11-27T23:57:37.528Z,23.27
